Titonka, IA

3:52 AM CDT on May 07, 2015 (GMT -0500)
KIATHOMP4 | | Change Station
CLOSE
Current Station
Personal Weather Station
Location: Thompson, IA
Elevation: 1210 ft
Nearby Weather Stations

Elev 1210 ft 43.35 °N, 93.81 °W | Updated 27 seconds ago

Overcast
Overcast
64.2 °F
Feels Like 64.2 °F
N
0.0
Wind Variable Wind from SW
Gusts 0.0 mph

Today
High -- | Low -- °F
--% Chance of Precip.
Yesterday
High -- | Low -- °F
Precip. -- in
6:01 AM 8:24 PM
Waning Gibbous, 89% visible
Pressure 29.75 in
Visibility 10.0 miles
Clouds Mostly Cloudy 5000 ft
Overcast 5500 ft
Dew Point 62 °F
Humidity 93%
Rainfall 0.00 in
Snow Depth Not available.
UV 0 out of 12
Pollen 9.60 out of 12
Air Quality Not available.
Flu Activity Local Activity
METAR KAXA 070815Z AUTO 16022G27KT 10SM BKN050 OVC055 19/14 A2975 RMK AO2

More Conditions Fewer Conditions

Pressure 29.75 in
Visibility 10.0 miles
Clouds Mostly Cloudy 5000 ft
Overcast 5500 ft
Dew Point 62 °F
Humidity 93%
Rainfall 0.00 in
Snow Depth Not available.
UV 0 out of 12
Pollen 9.60 out of 12
Air Quality Not available.
Flu Activity Local Activity
METAR KAXA 070815Z AUTO 16022G27KT 10SM BKN050 OVC055 19/14 A2975 RMK AO2

More Conditions Fewer Conditions

10-Day Weather Forecast

Almanac

Astronomy

May. 07, 2015 Rise Set
Actual Time
Civil Twilight
Nautical Twilight
Astronomical Twilight
Moon
Length of Visible Light
Length of Day
Tomorrow will be .
, % of the Moon is Illuminated

Today's Extremes

State Highs State Lows

Community

WunderPhotos

Upload Photos

1,819,126 photos uploaded!

WunderBlogs® & News

Nearby

Air Quality

  Air Quality AQ Index Pollutant
Not available.

Snow Depth

Station Depth Elevation

Earthquake Activity

City Distance Mag. Time & Date
Minimum magnitude displayed is 2.5.

Coastal Water Temperatures

Place Temperature

Stations

Nearby Weather Stations

Station Location Temp. Windchill Dew Point Humidity Wind Precip. Elev Updated Type